createdAt,value
2023-08-11T00:00:32.333Z,94132.25
2023-08-11T00:01:30.118Z,94128.66
2023-08-11T00:02:27.219Z,94130.72
2023-08-11T00:03:24.016Z,94132.44
2023-08-11T00:04:20.729Z,94131.31
2023-08-11T00:05:21.531Z,94129.50
2023-08-11T00:06:18.267Z,94133.47
2023-08-11T00:07:14.887Z,94128.53
2023-08-11T00:08:14.332Z,94133.63
2023-08-11T00:09:12.399Z,94140.31
2023-08-11T00:10:09.477Z,94132.53
2023-08-11T00:11:07.462Z,94133.22
2023-08-11T00:12:04.402Z,94116.22
2023-08-11T00:13:01.887Z,94127.09
2023-08-11T00:13:58.594Z,94130.97
2023-08-11T00:14:55.245Z,94129.50
2023-08-11T00:15:51.981Z,94130.56
2023-08-11T00:16:48.631Z,94128.88
2023-08-11T00:17:45.458Z,94129.22
2023-08-11T00:18:42.284Z,94129.91
2023-08-11T00:19:39.140Z,94117.56
2023-08-11T00:20:36.088Z,94123.50
2023-08-11T00:21:32.757Z,94116.75
2023-08-11T00:22:29.464Z,94119.00
2023-08-11T00:23:26.199Z,94120.47
2023-08-11T00:24:22.849Z,94086.41
2023-08-11T00:25:19.614Z,94120.47
2023-08-11T00:26:16.466Z,94118.28
2023-08-11T00:27:13.167Z,94115.53
2023-08-11T00:28:09.960Z,94106.72
2023-08-11T00:29:06.709Z,94106.38
2023-08-11T00:30:05.550Z,94114.47
2023-08-11T00:31:02.319Z,94104.53
2023-08-11T00:31:59.438Z,94102.09
2023-08-11T00:32:56.249Z,94104.81
2023-08-11T00:33:53.078Z,94109.84
2023-08-11T00:34:50.101Z,94102.50
2023-08-11T00:35:46.894Z,94084.31
2023-08-11T00:36:43.553Z,94098.25
2023-08-11T00:37:40.290Z,94102.97
2023-08-11T00:38:38.926Z,94099.66
2023-08-11T00:39:36.954Z,94098.84
2023-08-11T00:40:33.646Z,94095.38
2023-08-11T00:41:31.471Z,94102.56
2023-08-11T00:42:28.072Z,94094.75
2023-08-11T00:43:24.695Z,94081.06
2023-08-11T00:44:22.080Z,94079.94
2023-08-11T00:45:19.659Z,94089.00
2023-08-11T00:46:16.521Z,94099.38
2023-08-11T00:47:13.351Z,94079.66
2023-08-11T00:48:09.978Z,94106.72
2023-08-11T00:49:06.920Z,94100.59
2023-08-11T00:50:04.497Z,94105.59
2023-08-11T00:51:02.739Z,94101.38
2023-08-11T00:51:59.968Z,94105.03
2023-08-11T00:52:56.773Z,94109.69
2023-08-11T00:53:53.718Z,94106.78
2023-08-11T00:54:50.447Z,94109.13
2023-08-11T00:55:47.455Z,94110.19
2023-08-11T00:56:45.975Z,94109.97
2023-08-11T00:57:43.669Z,94093.31
2023-08-11T00:58:40.844Z,94113.00
2023-08-11T00:59:37.669Z,94115.03
2023-08-11T01:00:34.385Z,94115.47
2023-08-11T01:01:31.184Z,94106.28
2023-08-11T01:02:28.052Z,94114.75
2023-08-11T01:03:25.857Z,94115.38
2023-08-11T01:04:22.611Z,94112.72
2023-08-11T01:05:20.460Z,94115.25
2023-08-11T01:06:20.292Z,94110.09
2023-08-11T01:07:28.736Z,94105.78
2023-08-11T01:08:39.869Z,94107.25
2023-08-11T01:09:49.070Z,94106.28
2023-08-11T01:10:46.462Z,94112.44
2023-08-11T01:12:21.650Z,94112.69
2023-08-11T01:13:21.330Z,94104.78
2023-08-11T01:14:51.029Z,94113.75
2023-08-11T01:16:01.502Z,94105.16
2023-08-11T01:17:00.557Z,94104.44
2023-08-11T01:17:58.178Z,94111.19
2023-08-11T01:18:55.126Z,94111.25
2023-08-11T01:19:51.821Z,94112.47
2023-08-11T01:20:52.401Z,94097.88
2023-08-11T01:21:50.684Z,94113.31
2023-08-11T01:22:51.401Z,94114.09
2023-08-11T01:23:48.616Z,94093.38
2023-08-11T01:24:46.575Z,94113.97
2023-08-11T01:25:43.520Z,94116.06
2023-08-11T01:26:40.242Z,94117.00
2023-08-11T01:27:40.355Z,94110.41
2023-08-11T01:28:37.098Z,94111.75
2023-08-11T01:29:33.712Z,94115.56
2023-08-11T01:30:31.517Z,94119.53
2023-08-11T01:31:28.349Z,94117.38
2023-08-11T01:32:25.363Z,94124.69
2023-08-11T01:33:23.062Z,94118.38
2023-08-11T01:34:19.782Z,94122.72
2023-08-11T01:35:25.353Z,94117.66
2023-08-11T01:36:26.429Z,94120.38
2023-08-11T01:37:23.084Z,94115.56
2023-08-11T01:38:19.758Z,94108.56
2023-08-11T01:39:16.393Z,94110.97
2023-08-11T01:40:15.111Z,94109.84
2023-08-11T01:41:13.117Z,94115.88
2023-08-11T01:42:10.307Z,94113.66
2023-08-11T01:43:09.680Z,94100.38
2023-08-11T01:44:09.998Z,94116.34
2023-08-11T01:45:09.056Z,94105.38
2023-08-11T01:46:05.908Z,94108.16
2023-08-11T01:47:04.390Z,94105.31
2023-08-11T01:48:02.891Z,94100.22
2023-08-11T01:49:00.277Z,94102.19
2023-08-11T01:49:57.075Z,94116.69
2023-08-11T01:50:54.133Z,94107.38
2023-08-11T01:51:50.997Z,94115.09
2023-08-11T01:52:49.865Z,94115.38
2023-08-11T01:53:46.789Z,94118.00
2023-08-11T01:54:44.399Z,94107.19
2023-08-11T01:55:42.047Z,94116.00
2023-08-11T01:56:40.735Z,94097.69
2023-08-11T01:57:45.041Z,94115.63
2023-08-11T01:58:49.289Z,94116.00
2023-08-11T01:59:46.505Z,94124.91
2023-08-11T02:00:43.190Z,94122.34
2023-08-11T02:01:41.153Z,94120.72
2023-08-11T02:02:40.940Z,94119.78
2023-08-11T02:03:37.802Z,94120.47
2023-08-11T02:04:34.646Z,94118.03
2023-08-11T02:05:31.499Z,94120.28
2023-08-11T02:06:28.165Z,94122.41
2023-08-11T02:07:24.822Z,94113.56
2023-08-11T02:08:23.292Z,94116.34
2023-08-11T02:09:20.037Z,94119.25
2023-08-11T02:10:17.248Z,94122.72
2023-08-11T02:11:14.584Z,94124.44
2023-08-11T02:12:11.333Z,94116.00
2023-08-11T02:13:08.068Z,94121.88
2023-08-11T02:14:08.046Z,94115.31
2023-08-11T02:15:08.742Z,94113.50
2023-08-11T02:16:05.454Z,94114.28
2023-08-11T02:17:02.199Z,94113.41
2023-08-11T02:17:58.947Z,94124.56
2023-08-11T02:18:55.748Z,94115.38
2023-08-11T02:19:52.498Z,94115.03
2023-08-11T02:20:49.748Z,94101.13
2023-08-11T02:21:46.477Z,94123.50
2023-08-11T02:22:43.095Z,94122.03
2023-08-11T02:23:39.708Z,94125.56
2023-08-11T02:24:36.320Z,94119.88
2023-08-11T02:25:33.148Z,94119.59
2023-08-11T02:26:29.887Z,94113.56
2023-08-11T02:27:26.662Z,94105.19
2023-08-11T02:28:23.471Z,94124.19
2023-08-11T02:29:20.121Z,94119.25
2023-08-11T02:30:16.739Z,94122.88
2023-08-11T02:31:13.420Z,94107.50
2023-08-11T02:32:10.173Z,94116.94
2023-08-11T02:33:07.615Z,94122.28
2023-08-11T02:34:04.417Z,94126.94
2023-08-11T02:35:01.190Z,94114.75
2023-08-11T02:35:57.848Z,94107.91
2023-08-11T02:36:54.577Z,94125.81
2023-08-11T02:37:51.271Z,94130.84
2023-08-11T02:38:47.921Z,94130.91
2023-08-11T02:39:45.397Z,94133.94
2023-08-11T02:40:42.126Z,94127.38
2023-08-11T02:41:38.842Z,94133.31
2023-08-11T02:42:36.905Z,94129.97
2023-08-11T02:43:35.279Z,94125.72
2023-08-11T02:44:31.960Z,94127.09
2023-08-11T02:45:28.731Z,94124.09
2023-08-11T02:46:25.918Z,94132.38
2023-08-11T02:47:22.689Z,94127.63
2023-08-11T02:48:19.367Z,94125.63
2023-08-11T02:49:16.004Z,94129.50
2023-08-11T02:50:14.470Z,94130.88
2023-08-11T02:51:11.299Z,94128.38
2023-08-11T02:52:08.484Z,94130.28
2023-08-11T02:53:06.039Z,94126.91
2023-08-11T02:54:02.866Z,94129.66
2023-08-11T02:54:59.642Z,94119.84
2023-08-11T02:55:56.264Z,94118.63
2023-08-11T02:56:52.926Z,94131.41
2023-08-11T02:57:49.673Z,94129.06
2023-08-11T02:58:46.392Z,94134.84
2023-08-11T02:59:44.345Z,94130.88
2023-08-11T03:00:42.291Z,94134.13
2023-08-11T03:01:39.047Z,94133.78
2023-08-11T03:02:35.784Z,94129.97
2023-08-11T03:03:32.684Z,94136.88
2023-08-11T03:04:29.685Z,94139.03
2023-08-11T03:05:26.360Z,94134.47
2023-08-11T03:06:23.075Z,94134.59
2023-08-11T03:07:19.777Z,94138.06
2023-08-11T03:08:16.472Z,94127.94
2023-08-11T03:09:13.631Z,94134.69
2023-08-11T03:10:10.852Z,94141.91
2023-08-11T03:11:07.588Z,94130.09
2023-08-11T03:12:04.415Z,94121.22
2023-08-11T03:13:01.194Z,94138.06
2023-08-11T03:13:57.971Z,94143.16
2023-08-11T03:14:54.630Z,94137.81
2023-08-11T03:15:53.409Z,94132.63
2023-08-11T03:16:50.321Z,94119.41
2023-08-11T03:17:47.666Z,94135.59
2023-08-11T03:18:44.452Z,94137.41
2023-08-11T03:19:41.124Z,94126.44
2023-08-11T03:20:38.084Z,94135.66
2023-08-11T03:21:34.731Z,94131.53
2023-08-11T03:22:31.399Z,94140.06
2023-08-11T03:23:29.947Z,94144.38
2023-08-11T03:24:26.837Z,94125.28
2023-08-11T03:25:23.637Z,94138.59
2023-08-11T03:26:20.368Z,94138.38
2023-08-11T03:27:18.832Z,94131.91
2023-08-11T03:28:15.525Z,94139.78
2023-08-11T03:29:12.182Z,94140.22
2023-08-11T03:30:10.803Z,94145.91
2023-08-11T03:31:07.442Z,94142.88
2023-08-11T03:32:04.320Z,94138.66
2023-08-11T03:33:00.998Z,94138.25
2023-08-11T03:33:57.693Z,94135.63
2023-08-11T03:34:54.613Z,94139.09
2023-08-11T03:35:51.287Z,94140.66
2023-08-11T03:36:47.923Z,94128.03
2023-08-11T03:37:44.685Z,94135.59
2023-08-11T03:38:41.872Z,94130.72
2023-08-11T03:39:38.555Z,94143.16
2023-08-11T03:40:35.365Z,94139.38
2023-08-11T03:41:32.327Z,94145.56
2023-08-11T03:42:29.021Z,94133.44
2023-08-11T03:43:25.977Z,94134.91
2023-08-11T03:44:22.770Z,94130.78
2023-08-11T03:45:19.654Z,94130.84
2023-08-11T03:46:16.421Z,94130.22
2023-08-11T03:47:13.180Z,94139.03
2023-08-11T03:48:09.893Z,94136.69
2023-08-11T03:49:07.904Z,94141.72
2023-08-11T03:50:05.040Z,94139.09
2023-08-11T03:51:02.609Z,94100.31
2023-08-11T03:51:59.364Z,94128.28
2023-08-11T03:52:56.232Z,94136.19
2023-08-11T03:53:52.966Z,94135.25
2023-08-11T03:54:49.718Z,94134.41
2023-08-11T03:55:49.194Z,94137.25
2023-08-11T03:56:45.977Z,94139.38
2023-08-11T03:57:42.720Z,94136.56
2023-08-11T03:58:39.414Z,94145.53
2023-08-11T03:59:36.144Z,94141.78
2023-08-11T04:00:32.783Z,94142.56
2023-08-11T04:01:29.660Z,94119.28
2023-08-11T04:02:26.550Z,94141.88
2023-08-11T04:03:23.634Z,94145.09
2023-08-11T04:04:20.449Z,94141.78
2023-08-11T04:05:18.179Z,94142.56
2023-08-11T04:06:15.178Z,94142.59
2023-08-11T04:07:11.886Z,94148.34
2023-08-11T04:08:08.790Z,94135.94
2023-08-11T04:09:05.656Z,94140.00
2023-08-11T04:10:02.347Z,94139.59
2023-08-11T04:10:59.059Z,94132.69
2023-08-11T04:11:55.703Z,94135.78
2023-08-11T04:12:52.560Z,94141.50
2023-08-11T04:13:49.160Z,94133.94
2023-08-11T04:14:45.775Z,94139.31
2023-08-11T04:15:42.397Z,94143.63
2023-08-11T04:16:39.050Z,94136.50
2023-08-11T04:17:37.987Z,94121.84
2023-08-11T04:18:34.763Z,94138.47
2023-08-11T04:19:31.603Z,94136.34
2023-08-11T04:20:29.967Z,94139.94
2023-08-11T04:21:26.805Z,94135.47
2023-08-11T04:22:38.223Z,94137.72
2023-08-11T04:23:35.922Z,94137.44
2023-08-11T04:24:32.546Z,94140.19
2023-08-11T04:25:29.524Z,94133.56
2023-08-11T04:26:26.289Z,94141.31
2023-08-11T04:27:22.884Z,94128.50
2023-08-11T04:28:19.535Z,94144.69
2023-08-11T04:29:16.216Z,94144.00
2023-08-11T04:30:13.813Z,94148.63
2023-08-11T04:31:11.300Z,94141.91
2023-08-11T04:32:08.200Z,94139.31
2023-08-11T04:33:05.286Z,94148.69
2023-08-11T04:34:02.138Z,94154.66
2023-08-11T04:34:58.834Z,94145.78
2023-08-11T04:35:55.476Z,94144.81
2023-08-11T04:36:52.172Z,94153.19
2023-08-11T04:37:48.846Z,94150.47
2023-08-11T04:38:45.530Z,94156.00
2023-08-11T04:39:42.186Z,94165.69
2023-08-11T04:40:38.845Z,94159.97
2023-08-11T04:41:35.622Z,94158.53
2023-08-11T04:42:32.281Z,94159.63
2023-08-11T04:43:30.368Z,94158.00
2023-08-11T04:44:27.292Z,94150.66
2023-08-11T04:45:24.003Z,94166.34
2023-08-11T04:46:20.749Z,94153.28
2023-08-11T04:47:17.447Z,94157.75
2023-08-11T04:48:14.155Z,94156.63
2023-08-11T04:49:10.870Z,94161.41
2023-08-11T04:50:09.348Z,94160.81
2023-08-11T04:51:06.110Z,94162.97
2023-08-11T04:52:02.791Z,94169.16
2023-08-11T04:52:59.549Z,94157.84
2023-08-11T04:54:01.545Z,94158.59
2023-08-11T04:54:58.978Z,94166.97
2023-08-11T04:55:55.691Z,94150.69
2023-08-11T04:56:52.991Z,94152.22
2023-08-11T04:57:49.764Z,94169.94
2023-08-11T04:58:46.420Z,94174.31
2023-08-11T04:59:43.182Z,94166.44
2023-08-11T05:00:39.913Z,94167.34
2023-08-11T05:01:36.649Z,94163.97
2023-08-11T05:02:34.431Z,94167.22
2023-08-11T05:03:31.814Z,94167.50
2023-08-11T05:04:28.662Z,94166.44
2023-08-11T05:05:25.319Z,94166.94
2023-08-11T05:06:22.898Z,94168.53
2023-08-11T05:07:19.780Z,94172.66
2023-08-11T05:08:16.419Z,94176.91
2023-08-11T05:09:13.230Z,94161.34
2023-08-11T05:10:10.287Z,94169.00
2023-08-11T05:11:06.994Z,94169.94
2023-08-11T05:12:04.099Z,94174.22
2023-08-11T05:13:00.762Z,94169.50
2023-08-11T05:13:57.442Z,94168.13
2023-08-11T05:14:54.557Z,94166.72
2023-08-11T05:15:51.275Z,94175.09
2023-08-11T05:16:47.994Z,94164.41
2023-08-11T05:17:44.881Z,94171.00
2023-08-11T05:18:43.936Z,94177.59
2023-08-11T05:19:41.172Z,94176.56
2023-08-11T05:20:37.863Z,94176.59
2023-08-11T05:21:34.689Z,94175.47
2023-08-11T05:22:31.377Z,94176.56
2023-08-11T05:23:28.069Z,94172.19
2023-08-11T05:24:24.896Z,94166.28
2023-08-11T05:25:21.827Z,94174.28
2023-08-11T05:26:18.896Z,94172.47
2023-08-11T05:27:16.408Z,94169.22
2023-08-11T05:28:13.104Z,94161.97
2023-08-11T05:29:11.894Z,94161.56
2023-08-11T05:30:09.544Z,94163.00
2023-08-11T05:31:07.140Z,94181.19
2023-08-11T05:32:04.142Z,94180.25
2023-08-11T05:33:00.888Z,94186.44
2023-08-11T05:33:57.707Z,94184.81
2023-08-11T05:34:56.753Z,94174.47
2023-08-11T05:35:53.635Z,94190.53
2023-08-11T05:36:50.357Z,94189.88
2023-08-11T05:37:48.530Z,94195.97
2023-08-11T05:38:46.808Z,94193.50
2023-08-11T05:39:46.350Z,94200.06
2023-08-11T05:40:44.104Z,94197.78
2023-08-11T05:41:42.421Z,94196.97
2023-08-11T05:42:39.415Z,94178.28
2023-08-11T05:43:37.552Z,94199.09
2023-08-11T05:44:34.403Z,94206.22
2023-08-11T05:45:31.075Z,94198.28
2023-08-11T05:46:27.806Z,94202.09
2023-08-11T05:47:24.495Z,94205.16
2023-08-11T05:48:21.145Z,94201.16
2023-08-11T05:49:17.876Z,94203.84
2023-08-11T05:50:15.045Z,94206.72
2023-08-11T05:51:11.668Z,94198.16
2023-08-11T05:52:08.334Z,94201.28
2023-08-11T05:53:05.070Z,94208.59
2023-08-11T05:54:01.705Z,94213.34
2023-08-11T05:54:58.392Z,94213.81
2023-08-11T05:55:55.022Z,94217.00
2023-08-11T05:56:54.344Z,94215.63
2023-08-11T05:57:51.043Z,94205.41
2023-08-11T05:58:47.730Z,94215.13
2023-08-11T05:59:44.338Z,94218.28
2023-08-11T06:00:41.075Z,94212.75
2023-08-11T06:01:38.668Z,94220.69
2023-08-11T06:02:35.387Z,94216.81
2023-08-11T06:03:32.300Z,94224.81
2023-08-11T06:04:29.111Z,94211.66
2023-08-11T06:05:26.002Z,94218.63
2023-08-11T06:06:22.732Z,94214.69
2023-08-11T06:07:19.403Z,94217.88
2023-08-11T06:08:16.117Z,94212.97
2023-08-11T06:09:12.893Z,94215.50
2023-08-11T06:10:10.746Z,94215.50
2023-08-11T06:11:07.447Z,94215.50
2023-08-11T06:12:04.685Z,94222.72
2023-08-11T06:13:01.573Z,94222.13
2023-08-11T06:13:58.231Z,94223.56
2023-08-11T06:14:54.850Z,94221.13
2023-08-11T06:15:52.004Z,94224.00
2023-08-11T06:16:48.760Z,94228.72
2023-08-11T06:17:50.480Z,94229.69
2023-08-11T06:18:47.336Z,94230.44
2023-08-11T06:19:44.046Z,94224.78
2023-08-11T06:20:42.110Z,94228.38
2023-08-11T06:21:39.349Z,94231.09
2023-08-11T06:22:36.047Z,94229.81
2023-08-11T06:23:33.386Z,94228.25
2023-08-11T06:24:30.365Z,94228.81
2023-08-11T06:25:27.275Z,94225.13
2023-08-11T06:26:24.151Z,94231.38
2023-08-11T06:27:22.958Z,94235.31
2023-08-11T06:28:19.628Z,94233.84
2023-08-11T06:29:16.422Z,94239.81
2023-08-11T06:30:13.419Z,94236.41
2023-08-11T06:31:10.949Z,94243.66
2023-08-11T06:32:08.566Z,94231.31
2023-08-11T06:33:05.595Z,94234.78
2023-08-11T06:34:02.428Z,94242.53
2023-08-11T06:34:59.075Z,94241.38
2023-08-11T06:35:55.738Z,94237.19
2023-08-11T06:36:52.398Z,94232.28
2023-08-11T06:37:49.392Z,94237.84
2023-08-11T06:38:46.096Z,94238.44
2023-08-11T06:39:42.811Z,94239.91
2023-08-11T06:40:39.570Z,94225.19
2023-08-11T06:41:36.195Z,94237.84
2023-08-11T06:42:33.051Z,94233.94
2023-08-11T06:43:31.173Z,94233.47
2023-08-11T06:44:27.827Z,94238.16
2023-08-11T06:45:24.541Z,94240.91
2023-08-11T06:46:21.709Z,94241.78
2023-08-11T06:47:18.585Z,94241.09
2023-08-11T06:48:15.330Z,94241.72
2023-08-11T06:49:12.114Z,94240.22
2023-08-11T06:50:09.381Z,94241.72
2023-08-11T06:51:06.225Z,94239.00
2023-08-11T06:52:03.448Z,94243.25
2023-08-11T06:53:00.756Z,94233.84
2023-08-11T06:53:57.521Z,94231.44
2023-08-11T06:54:54.233Z,94227.06
2023-08-11T06:55:50.872Z,94238.97
2023-08-11T06:56:47.533Z,94231.34
2023-08-11T06:57:44.209Z,94230.28
2023-08-11T06:58:40.974Z,94234.50
2023-08-11T06:59:37.606Z,94226.53
2023-08-11T07:00:34.278Z,94238.91
2023-08-11T07:01:31.042Z,94241.63
2023-08-11T07:02:27.802Z,94242.78
2023-08-11T07:03:24.623Z,94227.03
2023-08-11T07:04:21.906Z,94231.75
2023-08-11T07:05:18.684Z,94239.13
2023-08-11T07:06:15.437Z,94234.19
2023-08-11T07:07:12.039Z,94241.94
2023-08-11T07:08:08.788Z,94241.16
2023-08-11T07:09:06.016Z,94237.63
2023-08-11T07:10:04.661Z,94241.94
2023-08-11T07:11:01.553Z,94248.84
2023-08-11T07:11:58.280Z,94244.38
2023-08-11T07:12:54.970Z,94230.06
2023-08-11T07:13:51.591Z,94243.63
2023-08-11T07:14:48.419Z,94250.56
2023-08-11T07:15:45.195Z,94238.22
2023-08-11T07:16:41.865Z,94245.88
2023-08-11T07:17:38.640Z,94242.09
2023-08-11T07:18:35.884Z,94244.06
2023-08-11T07:19:32.573Z,94242.50
2023-08-11T07:20:29.222Z,94246.00
2023-08-11T07:21:25.959Z,94242.53
2023-08-11T07:22:22.690Z,94256.44
2023-08-11T07:23:19.291Z,94231.16
2023-08-11T07:24:16.111Z,94242.78
2023-08-11T07:25:12.783Z,94244.38
2023-08-11T07:26:09.403Z,94247.06
2023-08-11T07:27:06.247Z,94243.63
2023-08-11T07:28:04.054Z,94242.09
2023-08-11T07:29:00.874Z,94252.91
2023-08-11T07:29:58.105Z,94226.25
2023-08-11T07:30:54.748Z,94251.38
2023-08-11T07:31:51.444Z,94249.34
2023-08-11T07:32:48.302Z,94242.41
2023-08-11T07:33:44.962Z,94253.28
2023-08-11T07:34:41.969Z,94252.94
2023-08-11T07:35:38.752Z,94258.34
2023-08-11T07:36:35.408Z,94251.00
2023-08-11T07:37:32.388Z,94252.16
2023-08-11T07:38:29.059Z,94250.59
2023-08-11T07:39:25.722Z,94259.91
2023-08-11T07:40:22.608Z,94223.22
2023-08-11T07:41:19.295Z,94256.78
2023-08-11T07:42:15.970Z,94250.59
2023-08-11T07:43:13.182Z,94245.19
2023-08-11T07:44:10.249Z,94254.50
2023-08-11T07:45:07.593Z,94247.53
2023-08-11T07:46:04.588Z,94251.41
2023-08-11T07:47:04.819Z,94249.84
2023-08-11T07:48:01.683Z,94247.16
2023-08-11T07:48:58.343Z,94251.03
2023-08-11T07:49:57.943Z,94256.78
2023-08-11T07:50:54.945Z,94251.41
2023-08-11T07:51:52.129Z,94249.41
2023-08-11T07:52:48.835Z,94229.75
2023-08-11T07:53:48.432Z,94248.97
2023-08-11T07:54:45.378Z,94247.00
2023-08-11T07:55:42.324Z,94242.78
2023-08-11T07:56:38.952Z,94248.19
2023-08-11T07:57:35.656Z,94247.41
2023-08-11T07:58:32.596Z,94247.44
2023-08-11T07:59:29.313Z,94244.25
2023-08-11T08:00:26.935Z,94243.41
2023-08-11T08:01:24.903Z,94244.91
2023-08-11T08:02:22.868Z,94240.69
2023-08-11T08:03:19.599Z,94235.28
2023-08-11T08:04:18.503Z,94219.53
2023-08-11T08:05:15.172Z,94229.19
2023-08-11T08:06:11.844Z,94233.25
2023-08-11T08:07:08.797Z,94233.38
2023-08-11T08:08:06.315Z,94240.47
2023-08-11T08:09:04.044Z,94240.06
2023-08-11T08:10:00.675Z,94230.88
2023-08-11T08:10:57.738Z,94242.19
2023-08-11T08:11:54.443Z,94235.06
2023-08-11T08:12:51.105Z,94230.75
2023-08-11T08:13:47.786Z,94235.38
2023-08-11T08:14:44.541Z,94231.84
2023-08-11T08:15:41.290Z,94234.78
2023-08-11T08:16:39.390Z,94230.91
2023-08-11T08:17:36.747Z,94234.75
2023-08-11T08:18:33.653Z,94241.38
2023-08-11T08:19:30.558Z,94239.88
2023-08-11T08:20:27.631Z,94227.91
2023-08-11T08:21:24.356Z,94245.03
2023-08-11T08:22:21.088Z,94248.84
2023-08-11T08:23:18.370Z,94241.19
2023-08-11T08:24:18.076Z,94234.25
2023-08-11T08:25:16.247Z,94247.28
2023-08-11T08:26:13.041Z,94236.22
2023-08-11T08:27:10.774Z,94244.66
2023-08-11T08:28:07.719Z,94242.72
2023-08-11T08:29:05.151Z,94243.56
2023-08-11T08:30:01.950Z,94243.75
2023-08-11T08:30:58.624Z,94242.13
2023-08-11T08:31:55.332Z,94243.50
2023-08-11T08:32:52.002Z,94242.16
2023-08-11T08:33:50.293Z,94221.91
2023-08-11T08:34:49.214Z,94236.59
2023-08-11T08:35:45.921Z,94233.34
2023-08-11T08:36:42.601Z,94237.88
2023-08-11T08:37:39.370Z,94227.03
2023-08-11T08:38:36.833Z,94248.31
2023-08-11T08:39:33.489Z,94238.72
2023-08-11T08:40:30.383Z,94230.03
2023-08-11T08:41:32.246Z,94244.31
2023-08-11T08:42:29.209Z,94239.75
2023-08-11T08:43:26.602Z,94235.75
2023-08-11T08:44:23.836Z,94240.44
2023-08-11T08:45:21.758Z,94239.31
2023-08-11T08:46:21.550Z,94236.78
2023-08-11T08:47:21.383Z,94240.25
2023-08-11T08:48:25.398Z,94245.09
2023-08-11T08:49:26.997Z,94235.88
2023-08-11T08:50:24.429Z,94235.47
2023-08-11T08:51:21.075Z,94239.69
2023-08-11T08:52:18.065Z,94244.00
2023-08-11T08:53:14.965Z,94236.88
2023-08-11T08:54:11.766Z,94229.41
2023-08-11T08:55:08.700Z,94218.88
2023-08-11T08:56:06.368Z,94237.19
2023-08-11T08:57:05.734Z,94218.16
2023-08-11T08:58:02.524Z,94231.88
2023-08-11T08:58:59.169Z,94232.63
2023-08-11T08:59:57.544Z,94220.84
2023-08-11T09:00:54.289Z,94239.03
2023-08-11T09:01:51.538Z,94194.41
2023-08-11T09:02:49.785Z,94232.22
2023-08-11T09:03:47.538Z,94230.88
2023-08-11T09:04:46.700Z,94241.13
2023-08-11T09:05:43.721Z,94231.31
2023-08-11T09:06:42.128Z,94238.06
2023-08-11T09:07:39.891Z,94243.09
2023-08-11T09:08:40.169Z,94249.19
2023-08-11T09:09:36.830Z,94240.13
2023-08-11T09:10:37.658Z,94242.75
2023-08-11T09:11:34.403Z,94242.16
2023-08-11T09:12:31.240Z,94232.38
2023-08-11T09:13:28.189Z,94250.94
2023-08-11T09:14:24.873Z,94242.22
2023-08-11T09:15:23.051Z,94239.72
2023-08-11T09:16:24.583Z,94250.25
2023-08-11T09:17:22.311Z,94241.78
2023-08-11T09:18:19.446Z,94242.47
2023-08-11T09:19:16.536Z,94241.00
2023-08-11T09:20:18.700Z,94241.00
2023-08-11T09:21:15.365Z,94235.97
2023-08-11T09:22:12.355Z,94229.94
2023-08-11T09:23:09.816Z,94246.03
2023-08-11T09:24:10.949Z,94229.22
2023-08-11T09:25:08.921Z,94244.38
2023-08-11T09:26:05.664Z,94234.06
2023-08-11T09:27:02.385Z,94234.91
2023-08-11T09:27:59.730Z,94238.16
2023-08-11T09:28:56.941Z,94236.19
2023-08-11T09:29:56.664Z,94236.03
2023-08-11T09:30:54.025Z,94248.13
2023-08-11T09:31:55.695Z,94236.09
2023-08-11T09:32:52.509Z,94232.94
2023-08-11T09:33:50.031Z,94241.97
2023-08-11T09:34:47.507Z,94241.88
2023-08-11T09:35:44.310Z,94243.53
2023-08-11T09:36:41.959Z,94240.53
2023-08-11T09:37:38.599Z,94241.91
2023-08-11T09:38:35.286Z,94240.25
2023-08-11T09:39:32.366Z,94245.91
2023-08-11T09:40:29.040Z,94236.44
2023-08-11T09:41:25.711Z,94216.25
2023-08-11T09:42:22.399Z,94234.75
2023-08-11T09:43:19.172Z,94231.44
2023-08-11T09:44:17.592Z,94239.94
2023-08-11T09:45:14.351Z,94247.25
2023-08-11T09:46:11.275Z,94242.84
2023-08-11T09:47:22.467Z,94241.47
2023-08-11T09:48:20.017Z,94243.41
2023-08-11T09:49:17.007Z,94223.53
2023-08-11T09:50:13.719Z,94230.91
2023-08-11T09:51:11.699Z,94233.41
2023-08-11T09:52:09.113Z,94231.69
2023-08-11T09:53:06.632Z,94232.38
2023-08-11T09:54:07.482Z,94235.06
2023-08-11T09:55:07.606Z,94235.50
2023-08-11T09:56:04.485Z,94248.00
2023-08-11T09:57:01.422Z,94238.50
2023-08-11T09:58:00.906Z,94246.66
2023-08-11T09:58:58.564Z,94243.09
2023-08-11T09:59:58.318Z,94239.66
2023-08-11T10:01:03.874Z,94239.38
2023-08-11T10:02:13.835Z,94235.56
2023-08-11T10:03:33.922Z,94234.28
2023-08-11T10:04:30.588Z,94240.19
2023-08-11T10:05:30.854Z,94236.72
2023-08-11T10:06:30.804Z,94239.84
2023-08-11T10:07:40.383Z,94239.97
2023-08-11T10:08:37.762Z,94243.41
2023-08-11T10:09:36.516Z,94241.09
2023-08-11T10:10:36.815Z,94237.81
2023-08-11T10:11:36.004Z,94240.88
2023-08-11T10:12:34.098Z,94227.69
2023-08-11T10:13:32.799Z,94227.81
2023-08-11T10:14:30.508Z,94235.19
2023-08-11T10:15:30.883Z,94235.34
2023-08-11T10:16:29.070Z,94243.06
2023-08-11T10:17:26.598Z,94229.44
2023-08-11T10:18:24.710Z,94217.13
2023-08-11T10:19:23.312Z,94235.69
2023-08-11T10:20:21.499Z,94236.84
2023-08-11T10:21:19.230Z,94229.19
2023-08-11T10:22:15.941Z,94236.44
2023-08-11T10:23:14.595Z,94231.00
2023-08-11T10:24:11.668Z,94230.59
2023-08-11T10:25:09.513Z,94227.94
2023-08-11T10:26:06.989Z,94227.13
2023-08-11T10:27:06.344Z,94226.69
2023-08-11T10:28:08.490Z,94223.97
2023-08-11T10:29:05.795Z,94209.38
2023-08-11T10:30:06.429Z,94231.09
2023-08-11T10:31:06.227Z,94234.84
2023-08-11T10:32:03.112Z,94225.97
2023-08-11T10:33:11.005Z,94214.34
2023-08-11T10:34:08.022Z,94215.09
2023-08-11T10:35:08.018Z,94220.78
2023-08-11T10:36:06.281Z,94223.50
2023-08-11T10:37:02.993Z,94228.13
2023-08-11T10:38:00.579Z,94226.59
2023-08-11T10:39:01.974Z,94223.63
2023-08-11T10:40:10.631Z,94214.78
2023-08-11T10:41:10.434Z,94219.44
2023-08-11T10:42:12.415Z,94212.09
2023-08-11T10:43:09.056Z,94214.00
2023-08-11T10:44:05.902Z,94199.31
2023-08-11T10:45:14.218Z,94220.50
2023-08-11T10:46:31.582Z,94218.94
2023-08-11T10:47:30.031Z,94213.50
2023-08-11T10:48:26.798Z,94198.16
2023-08-11T10:49:41.555Z,94218.19
2023-08-11T10:50:39.452Z,94212.00
2023-08-11T10:51:38.970Z,94208.47
2023-08-11T10:52:35.946Z,94216.84
2023-08-11T10:53:32.565Z,94215.47
2023-08-11T10:54:29.294Z,94188.91
2023-08-11T10:55:31.258Z,94206.56
2023-08-11T10:56:37.407Z,94209.31
2023-08-11T10:57:35.696Z,94209.31
2023-08-11T10:58:33.572Z,94214.09
2023-08-11T10:59:31.639Z,94212.69
2023-08-11T11:00:28.393Z,94213.63
2023-08-11T11:01:25.397Z,94212.38
2023-08-11T11:02:22.804Z,94211.00
2023-08-11T11:03:19.986Z,94212.34
2023-08-11T11:04:20.083Z,94212.97
2023-08-11T11:05:21.252Z,94212.63
2023-08-11T11:06:18.043Z,94203.56
2023-08-11T11:07:15.744Z,94204.66
2023-08-11T11:08:12.499Z,94211.44
2023-08-11T11:09:09.447Z,94214.91
2023-08-11T11:10:06.970Z,94212.28
2023-08-11T11:11:03.681Z,94213.03
2023-08-11T11:12:00.379Z,94212.00
2023-08-11T11:12:57.200Z,94220.47
2023-08-11T11:13:53.987Z,94212.19
2023-08-11T11:14:51.131Z,94214.56
2023-08-11T11:15:48.039Z,94213.22
2023-08-11T11:16:44.914Z,94208.69
2023-08-11T11:17:41.784Z,94212.16
2023-08-11T11:18:38.496Z,94210.84